LJC6 EGHH-EGJB
Flight info
| Callsign | LJC6 |
|---|---|
| Flight time | 0h 29m |
| Altitude | 16000 |
| Route | THRED Q41 ORTAC |
| Aircraft | B350/L-SDFG/S |
Departure
| Time | 2026-04-26 20:15 |
|---|---|
| Airport | Bournemouth Airport (EGHH) |
Arrival
| Time | 2026-04-26 20:45 |
|---|---|
| Airport | Guernsey Airport (EGJB) |
| Time | Latitude | Longitude | Altitude | Speed | Heading |
|---|---|---|---|---|---|
| 2026-04-26 20:00 | 50.78428 | -1.83189 | 43 ft | 0 kts | 73° |
| 2026-04-26 20:06 | 50.78428 | -1.83188 | 43 ft | 0 kts | 73° |
| 2026-04-26 20:12 | 50.78425 | -1.83148 | 43 ft | 5 kts | 130° |
| 2026-04-26 20:12 | 50.78393 | -1.83112 | 43 ft | 6 kts | 110° |
| 2026-04-26 20:12 | 50.78395 | -1.83055 | 43 ft | 0 kts | 87° |
| 2026-04-26 20:12 | 50.78395 | -1.83054 | 43 ft | 0 kts | 87° |
| 2026-04-26 20:13 | 50.78396 | -1.83047 | 43 ft | 5 kts | 87° |
| 2026-04-26 20:14 | 50.78387 | -1.82930 | 43 ft | 12 kts | 103° |
| 2026-04-26 20:14 | 50.78330 | -1.82776 | 43 ft | 15 kts | 135° |
| 2026-04-26 20:14 | 50.78283 | -1.82733 | 43 ft | 5 kts | 183° |
| 2026-04-26 20:14 | 50.78252 | -1.82779 | 43 ft | 0 kts | 256° |
| 2026-04-26 20:15 | 50.78251 | -1.82779 | 43 ft | 0 kts | 256° |
| 2026-04-26 20:15 | 50.78145 | -1.83415 | 44 ft | 109 kts | 256° |
| 2026-04-26 20:15 | 50.77956 | -1.84723 | 505 ft | 134 kts | 261° |
| 2026-04-26 20:15 | 50.77776 | -1.86315 | 1061 ft | 159 kts | 262° |
| 2026-04-26 20:16 | 50.77691 | -1.88065 | 1720 ft | 166 kts | 272° |
| 2026-04-26 20:16 | 50.77699 | -1.89957 | 2257 ft | 178 kts | 274° |
| 2026-04-26 20:16 | 50.77719 | -1.91929 | 2839 ft | 183 kts | 274° |
| 2026-04-26 20:16 | 50.77670 | -1.93927 | 3433 ft | 187 kts | 255° |
| 2026-04-26 20:17 | 50.76952 | -1.95541 | 4040 ft | 185 kts | 212° |
| 2026-04-26 20:17 | 50.75747 | -1.96031 | 4644 ft | 181 kts | 171° |
| 2026-04-26 20:17 | 50.74630 | -1.95228 | 5219 ft | 180 kts | 144° |
| 2026-04-26 20:17 | 50.73950 | -1.94464 | 5605 ft | 182 kts | 142° |
| 2026-04-26 20:18 | 50.72592 | -1.92860 | 6355 ft | 185 kts | 142° |
| 2026-04-26 20:18 | 50.71560 | -1.91633 | 6909 ft | 186 kts | 142° |
| 2026-04-26 20:18 | 50.70531 | -1.90421 | 7457 ft | 188 kts | 143° |
| 2026-04-26 20:18 | 50.69487 | -1.89196 | 7981 ft | 189 kts | 143° |
| 2026-04-26 20:19 | 50.68425 | -1.87955 | 8506 ft | 189 kts | 144° |
| 2026-04-26 20:19 | 50.67375 | -1.86730 | 9001 ft | 191 kts | 144° |
| 2026-04-26 20:19 | 50.66311 | -1.85492 | 9496 ft | 191 kts | 145° |
| 2026-04-26 20:19 | 50.65237 | -1.84241 | 9986 ft | 192 kts | 145° |
| 2026-04-26 20:20 | 50.64180 | -1.83011 | 10460 ft | 192 kts | 146° |
| 2026-04-26 20:20 | 50.63100 | -1.81755 | 10926 ft | 193 kts | 146° |
| 2026-04-26 20:20 | 50.62029 | -1.80510 | 11385 ft | 193 kts | 146° |
| 2026-04-26 20:20 | 50.60951 | -1.79259 | 11820 ft | 194 kts | 147° |
| 2026-04-26 20:21 | 50.59874 | -1.78008 | 12237 ft | 194 kts | 147° |
| 2026-04-26 20:21 | 50.58792 | -1.76753 | 12639 ft | 194 kts | 147° |
| 2026-04-26 20:21 | 50.57690 | -1.75475 | 13038 ft | 194 kts | 147° |
| 2026-04-26 20:21 | 50.56603 | -1.74227 | 13429 ft | 194 kts | 150° |
| 2026-04-26 20:22 | 50.55359 | -1.73747 | 13783 ft | 184 kts | 194° |
| 2026-04-26 20:22 | 50.54154 | -1.74395 | 14128 ft | 184 kts | 202° |
| 2026-04-26 20:22 | 50.52882 | -1.75044 | 14261 ft | 199 kts | 200° |
| 2026-04-26 20:22 | 50.51496 | -1.75707 | 14278 ft | 216 kts | 199° |
| 2026-04-26 20:23 | 50.50021 | -1.76411 | 14281 ft | 231 kts | 199° |
| 2026-04-26 20:23 | 50.48427 | -1.77177 | 14274 ft | 244 kts | 199° |
| 2026-04-26 20:23 | 50.46776 | -1.77973 | 14274 ft | 254 kts | 199° |
| 2026-04-26 20:23 | 50.45045 | -1.78813 | 14271 ft | 263 kts | 199° |
| 2026-04-26 20:24 | 50.43277 | -1.79671 | 14270 ft | 269 kts | 199° |
| 2026-04-26 20:24 | 50.41488 | -1.80540 | 14260 ft | 274 kts | 199° |
| 2026-04-26 20:24 | 50.39655 | -1.81430 | 14256 ft | 276 kts | 199° |
| 2026-04-26 20:24 | 50.37799 | -1.82330 | 14249 ft | 275 kts | 199° |
| 2026-04-26 20:25 | 50.35978 | -1.83212 | 14251 ft | 274 kts | 199° |
| 2026-04-26 20:25 | 50.35370 | -1.83506 | 14249 ft | 274 kts | 199° |
| 2026-04-26 20:25 | 50.32362 | -1.84961 | 14250 ft | 273 kts | 199° |
| 2026-04-26 20:25 | 50.30531 | -1.85846 | 14248 ft | 273 kts | 199° |
| 2026-04-26 20:26 | 50.28725 | -1.86718 | 14250 ft | 272 kts | 199° |
| 2026-04-26 20:26 | 50.26910 | -1.87596 | 14250 ft | 272 kts | 199° |
| 2026-04-26 20:26 | 50.25109 | -1.88471 | 14251 ft | 272 kts | 199° |
| 2026-04-26 20:26 | 50.23304 | -1.89349 | 14247 ft | 272 kts | 199° |
| 2026-04-26 20:27 | 50.21501 | -1.90223 | 14247 ft | 272 kts | 199° |
| 2026-04-26 20:27 | 50.19700 | -1.91094 | 14243 ft | 272 kts | 199° |
| 2026-04-26 20:27 | 50.17889 | -1.91967 | 14241 ft | 271 kts | 199° |
| 2026-04-26 20:27 | 50.16064 | -1.92845 | 14246 ft | 271 kts | 199° |
| 2026-04-26 20:28 | 50.14266 | -1.93709 | 14243 ft | 271 kts | 199° |
| 2026-04-26 20:28 | 50.12457 | -1.94576 | 14245 ft | 271 kts | 199° |
| 2026-04-26 20:28 | 50.10616 | -1.95459 | 14241 ft | 271 kts | 199° |
| 2026-04-26 20:28 | 50.08799 | -1.96329 | 14238 ft | 271 kts | 199° |
| 2026-04-26 20:29 | 50.07007 | -1.97186 | 14238 ft | 271 kts | 199° |
| 2026-04-26 20:29 | 50.05191 | -1.98054 | 14238 ft | 271 kts | 199° |
| 2026-04-26 20:29 | 50.03325 | -1.98944 | 14241 ft | 271 kts | 199° |
| 2026-04-26 20:29 | 50.01515 | -1.99819 | 14238 ft | 271 kts | 201° |
| 2026-04-26 20:30 | 49.99836 | -2.01237 | 14243 ft | 268 kts | 219° |
| 2026-04-26 20:30 | 49.98516 | -2.03288 | 14247 ft | 267 kts | 231° |
| 2026-04-26 20:30 | 49.97337 | -2.05591 | 14240 ft | 268 kts | 233° |
| 2026-04-26 20:30 | 49.96190 | -2.07925 | 14239 ft | 268 kts | 234° |
| 2026-04-26 20:31 | 49.95060 | -2.10225 | 14235 ft | 268 kts | 233° |
| 2026-04-26 20:31 | 49.93916 | -2.12538 | 14236 ft | 267 kts | 233° |
| 2026-04-26 20:31 | 49.92776 | -2.14825 | 14236 ft | 267 kts | 233° |
| 2026-04-26 20:31 | 49.91639 | -2.17108 | 14238 ft | 267 kts | 233° |
| 2026-04-26 20:32 | 49.90493 | -2.19411 | 14238 ft | 267 kts | 233° |
| 2026-04-26 20:32 | 49.89351 | -2.21704 | 14239 ft | 267 kts | 233° |
| 2026-04-26 20:32 | 49.88215 | -2.23990 | 14243 ft | 267 kts | 233° |
| 2026-04-26 20:32 | 49.87058 | -2.26315 | 14243 ft | 268 kts | 233° |
| 2026-04-26 20:33 | 49.85916 | -2.28608 | 14115 ft | 271 kts | 233° |
| 2026-04-26 20:33 | 49.84780 | -2.30898 | 13706 ft | 264 kts | 233° |
| 2026-04-26 20:33 | 49.83676 | -2.33121 | 13329 ft | 260 kts | 233° |
| 2026-04-26 20:33 | 49.82581 | -2.35323 | 12949 ft | 256 kts | 233° |
| 2026-04-26 20:34 | 49.81501 | -2.37497 | 12568 ft | 253 kts | 233° |
| 2026-04-26 20:34 | 49.80428 | -2.39652 | 12190 ft | 251 kts | 233° |
| 2026-04-26 20:34 | 49.79362 | -2.41791 | 11811 ft | 248 kts | 233° |
| 2026-04-26 20:34 | 49.78315 | -2.43890 | 11436 ft | 247 kts | 233° |
| 2026-04-26 20:35 | 49.77261 | -2.46000 | 11061 ft | 246 kts | 233° |
| 2026-04-26 20:35 | 49.76218 | -2.48082 | 10683 ft | 245 kts | 233° |
| 2026-04-26 20:35 | 49.75161 | -2.50192 | 10300 ft | 244 kts | 233° |
| 2026-04-26 20:35 | 49.74128 | -2.52249 | 9928 ft | 244 kts | 233° |
| 2026-04-26 20:36 | 49.73031 | -2.54238 | 9542 ft | 244 kts | 227° |
| 2026-04-26 20:36 | 49.71822 | -2.56113 | 9169 ft | 244 kts | 226° |
| 2026-04-26 20:36 | 49.70639 | -2.57945 | 8798 ft | 243 kts | 226° |
| 2026-04-26 20:36 | 49.69445 | -2.59794 | 8419 ft | 243 kts | 226° |
| 2026-04-26 20:37 | 49.68251 | -2.61639 | 8043 ft | 243 kts | 226° |
| 2026-04-26 20:37 | 49.67062 | -2.63479 | 7671 ft | 243 kts | 226° |
| 2026-04-26 20:37 | 49.65833 | -2.65318 | 7275 ft | 244 kts | 219° |
| 2026-04-26 20:37 | 49.64387 | -2.66649 | 6899 ft | 244 kts | 207° |
| 2026-04-26 20:38 | 49.62803 | -2.67768 | 6510 ft | 244 kts | 204° |
| 2026-04-26 20:38 | 49.61239 | -2.68837 | 6133 ft | 244 kts | 204° |
| 2026-04-26 20:38 | 49.59703 | -2.69913 | 5760 ft | 245 kts | 205° |
| 2026-04-26 20:38 | 49.58157 | -2.71027 | 5384 ft | 245 kts | 205° |
| 2026-04-26 20:39 | 49.56628 | -2.72147 | 5012 ft | 245 kts | 205° |
| 2026-04-26 20:39 | 49.55597 | -2.72908 | 4757 ft | 245 kts | 205° |
| 2026-04-26 20:39 | 49.53544 | -2.74428 | 4249 ft | 243 kts | 205° |
| 2026-04-26 20:39 | 49.52060 | -2.75531 | 3858 ft | 236 kts | 205° |
| 2026-04-26 20:40 | 49.50587 | -2.76624 | 3461 ft | 230 kts | 205° |
| 2026-04-26 20:40 | 49.49169 | -2.77676 | 3076 ft | 226 kts | 205° |
| 2026-04-26 20:40 | 49.47751 | -2.78729 | 2661 ft | 223 kts | 204° |
| 2026-04-26 20:40 | 49.46352 | -2.79533 | 2365 ft | 213 kts | 187° |
| 2026-04-26 20:41 | 49.44928 | -2.79319 | 2069 ft | 200 kts | 157° |
| 2026-04-26 20:41 | 49.43849 | -2.78215 | 1982 ft | 178 kts | 125° |
| 2026-04-26 20:41 | 49.43286 | -2.76630 | 1980 ft | 158 kts | 115° |
| 2026-04-26 20:41 | 49.43091 | -2.75108 | 2013 ft | 143 kts | 88° |
| 2026-04-26 20:42 | 49.43122 | -2.73536 | 1866 ft | 139 kts | 88° |
| 2026-04-26 20:42 | 49.43158 | -2.72160 | 1679 ft | 120 kts | 87° |
| 2026-04-26 20:42 | 49.43195 | -2.70927 | 1573 ft | 109 kts | 86° |
| 2026-04-26 20:42 | 49.43241 | -2.69815 | 1436 ft | 105 kts | 87° |
| 2026-04-26 20:43 | 49.43264 | -2.68731 | 1192 ft | 97 kts | 86° |
| 2026-04-26 20:43 | 49.43298 | -2.67694 | 1025 ft | 99 kts | 86° |
| 2026-04-26 20:43 | 49.43328 | -2.66635 | 888 ft | 99 kts | 88° |
| 2026-04-26 20:43 | 49.43336 | -2.65583 | 790 ft | 98 kts | 86° |
| 2026-04-26 20:44 | 49.43383 | -2.64532 | 700 ft | 98 kts | 86° |
| 2026-04-26 20:44 | 49.43403 | -2.63489 | 595 ft | 100 kts | 86° |
| 2026-04-26 20:44 | 49.43434 | -2.62433 | 460 ft | 98 kts | 86° |
| 2026-04-26 20:44 | 49.43465 | -2.61378 | 334 ft | 99 kts | 87° |
| 2026-04-26 20:45 | 49.43493 | -2.60355 | 317 ft | 92 kts | 86° |
| 2026-04-26 20:45 | 49.43514 | -2.59557 | 333 ft | 49 kts | 87° |
| 2026-04-26 20:45 | 49.43521 | -2.59273 | 335 ft | 8 kts | 88° |
| 2026-04-26 20:45 | 49.43488 | -2.59204 | 336 ft | 9 kts | 171° |
| 2026-04-26 20:46 | 49.43464 | -2.59201 | 336 ft | 1 kts | 174° |
| 2026-04-26 20:46 | 49.43406 | -2.59199 | 336 ft | 7 kts | 191° |
| 2026-04-26 20:46 | 49.43359 | -2.59239 | 336 ft | 9 kts | 163° |
| 2026-04-26 20:46 | 49.43335 | -2.59231 | 336 ft | 5 kts | 191° |
| 2026-04-26 20:47 | 49.43329 | -2.59271 | 336 ft | 1 kts | 328° |
| 2026-04-26 20:47 | 49.43331 | -2.59273 | 336 ft | 0 kts | 340° |
| 2026-04-26 20:47 | 49.43335 | -2.59276 | 336 ft | 0 kts | 324° |